sensor_id;sensor_type;location;lat;lon;timestamp;P1;durP1;ratioP1;P2;durP2;ratioP2
68284;SDS011;55114;52.052;5.238;2023-02-03T00:00:03;12.13;;;2.07;;
68284;SDS011;55114;52.052;5.238;2023-02-03T00:02:30;11.57;;;2.25;;
68284;SDS011;55114;52.052;5.238;2023-02-03T00:04:57;13.45;;;2.20;;
68284;SDS011;55114;52.052;5.238;2023-02-03T00:07:25;9.32;;;2.05;;
68284;SDS011;55114;52.052;5.238;2023-02-03T00:09:52;6.22;;;1.88;;
68284;SDS011;55114;52.052;5.238;2023-02-03T00:12:19;10.33;;;2.73;;
68284;SDS011;55114;52.052;5.238;2023-02-03T00:14:46;12.45;;;2.25;;
68284;SDS011;55114;52.052;5.238;2023-02-03T00:17:13;9.15;;;1.70;;
68284;SDS011;55114;52.052;5.238;2023-02-03T00:19:40;9.95;;;2.13;;
68284;SDS011;55114;52.052;5.238;2023-02-03T00:22:07;7.60;;;1.80;;
68284;SDS011;55114;52.052;5.238;2023-02-03T00:24:34;12.07;;;1.83;;
68284;SDS011;55114;52.052;5.238;2023-02-03T00:27:02;10.57;;;2.00;;
68284;SDS011;55114;52.052;5.238;2023-02-03T00:29:29;10.82;;;2.67;;
68284;SDS011;55114;52.052;5.238;2023-02-03T00:31:56;10.07;;;1.65;;
68284;SDS011;55114;52.052;5.238;2023-02-03T00:34:27;9.82;;;2.20;;
68284;SDS011;55114;52.052;5.238;2023-02-03T00:36:55;12.33;;;2.43;;
68284;SDS011;55114;52.052;5.238;2023-02-03T00:39:22;13.68;;;2.20;;
68284;SDS011;55114;52.052;5.238;2023-02-03T00:41:49;9.55;;;2.50;;
68284;SDS011;55114;52.052;5.238;2023-02-03T00:44:16;9.63;;;2.05;;
68284;SDS011;55114;52.052;5.238;2023-02-03T00:46:44;9.35;;;2.30;;
68284;SDS011;55114;52.052;5.238;2023-02-03T00:49:11;7.40;;;1.90;;
68284;SDS011;55114;52.052;5.238;2023-02-03T00:51:38;8.57;;;2.17;;
68284;SDS011;55114;52.052;5.238;2023-02-03T00:54:05;10.32;;;2.30;;
68284;SDS011;55114;52.052;5.238;2023-02-03T00:56:32;11.30;;;2.10;;
68284;SDS011;55114;52.052;5.238;2023-02-03T00:58:59;11.88;;;2.33;;
68284;SDS011;55114;52.052;5.238;2023-02-03T01:01:27;9.80;;;1.83;;
68284;SDS011;55114;52.052;5.238;2023-02-03T01:03:54;8.60;;;1.63;;
68284;SDS011;55114;52.052;5.238;2023-02-03T01:06:22;10.98;;;2.55;;
68284;SDS011;55114;52.052;5.238;2023-02-03T01:08:49;9.32;;;1.92;;
68284;SDS011;55114;52.052;5.238;2023-02-03T01:11:25;10.95;;;2.08;;
68284;SDS011;55114;52.052;5.238;2023-02-03T01:13:54;9.67;;;1.97;;
68284;SDS011;55114;52.052;5.238;2023-02-03T01:16:22;7.57;;;2.10;;
68284;SDS011;55114;52.052;5.238;2023-02-03T01:18:53;11.18;;;2.33;;
68284;SDS011;55114;52.052;5.238;2023-02-03T01:21:22;11.02;;;2.13;;
68284;SDS011;55114;52.052;5.238;2023-02-03T01:23:50;9.75;;;2.10;;
68284;SDS011;55114;52.052;5.238;2023-02-03T01:26:18;11.37;;;1.90;;
68284;SDS011;55114;52.052;5.238;2023-02-03T01:28:58;9.25;;;2.03;;
68284;SDS011;55114;52.052;5.238;2023-02-03T01:31:27;11.65;;;1.80;;
68284;SDS011;55114;52.052;5.238;2023-02-03T01:33:54;9.63;;;2.08;;
68284;SDS011;55114;52.052;5.238;2023-02-03T01:36:23;10.93;;;1.63;;
68284;SDS011;55114;52.052;5.238;2023-02-03T01:38:50;9.47;;;1.90;;
68284;SDS011;55114;52.052;5.238;2023-02-03T01:41:20;11.50;;;1.58;;
68284;SDS011;55114;52.052;5.238;2023-02-03T01:43:49;7.97;;;1.40;;
68284;SDS011;55114;52.052;5.238;2023-02-03T01:48:43;9.10;;;1.80;;
68284;SDS011;55114;52.052;5.238;2023-02-03T01:51:10;6.37;;;1.20;;
68284;SDS011;55114;52.052;5.238;2023-02-03T01:53:38;6.50;;;1.60;;
68284;SDS011;55114;52.052;5.238;2023-02-03T01:56:05;9.30;;;1.70;;
68284;SDS011;55114;52.052;5.238;2023-02-03T01:58:34;6.60;;;1.40;;
68284;SDS011;55114;52.052;5.238;2023-02-03T02:01:03;8.10;;;1.50;;
68284;SDS011;55114;52.052;5.238;2023-02-03T02:03:31;7.67;;;1.40;;
68284;SDS011;55114;52.052;5.238;2023-02-03T02:06:07;7.82;;;1.42;;
68284;SDS011;55114;52.052;5.238;2023-02-03T02:08:35;10.90;;;1.67;;
68284;SDS011;55114;52.052;5.238;2023-02-03T02:11:03;9.18;;;1.50;;
68284;SDS011;55114;52.052;5.238;2023-02-03T02:13:31;8.75;;;1.33;;
68284;SDS011;55114;52.052;5.238;2023-02-03T02:16:05;7.60;;;1.47;;
68284;SDS011;55114;52.052;5.238;2023-02-03T02:18:43;9.05;;;1.33;;
68284;SDS011;55114;52.052;5.238;2023-02-03T02:28:57;9.67;;;1.70;;
68284;SDS011;55114;52.052;5.238;2023-02-03T02:34:24;5.65;;;1.75;;
68284;SDS011;55114;52.052;5.238;2023-02-03T02:36:59;7.10;;;1.38;;
68284;SDS011;55114;52.052;5.238;2023-02-03T02:39:36;4.70;;;1.20;;
68284;SDS011;55114;52.052;5.238;2023-02-03T02:42:13;7.60;;;1.10;;
68284;SDS011;55114;52.052;5.238;2023-02-03T02:44:43;7.22;;;1.20;;
68284;SDS011;55114;52.052;5.238;2023-02-03T02:47:15;6.95;;;1.13;;
68284;SDS011;55114;52.052;5.238;2023-02-03T02:49:49;6.50;;;1.20;;
68284;SDS011;55114;52.052;5.238;2023-02-03T02:52:19;9.38;;;1.65;;
68284;SDS011;55114;52.052;5.238;2023-02-03T02:54:49;6.07;;;1.40;;
68284;SDS011;55114;52.052;5.238;2023-02-03T02:57:17;8.15;;;1.42;;
68284;SDS011;55114;52.052;5.238;2023-02-03T02:59:46;5.88;;;2.03;;
68284;SDS011;55114;52.052;5.238;2023-02-03T03:02:13;5.53;;;1.30;;
68284;SDS011;55114;52.052;5.238;2023-02-03T03:04:42;5.97;;;1.38;;
68284;SDS011;55114;52.052;5.238;2023-02-03T03:07:11;6.80;;;1.00;;
68284;SDS011;55114;52.052;5.238;2023-02-03T03:09:44;9.10;;;1.30;;
68284;SDS011;55114;52.052;5.238;2023-02-03T03:12:17;5.93;;;1.20;;
68284;SDS011;55114;52.052;5.238;2023-02-03T03:14:52;6.03;;;1.27;;
68284;SDS011;55114;52.052;5.238;2023-02-03T03:17:22;8.05;;;1.38;;
68284;SDS011;55114;52.052;5.238;2023-02-03T03:19:53;5.37;;;1.23;;
68284;SDS011;55114;52.052;5.238;2023-02-03T03:22:26;7.47;;;1.38;;
68284;SDS011;55114;52.052;5.238;2023-02-03T03:24:57;4.38;;;1.02;;
68284;SDS011;55114;52.052;5.238;2023-02-03T03:27:28;8.27;;;1.30;;
68284;SDS011;55114;52.052;5.238;2023-02-03T03:30:01;9.98;;;2.00;;
68284;SDS011;55114;52.052;5.238;2023-02-03T03:32:30;5.63;;;1.30;;
68284;SDS011;55114;52.052;5.238;2023-02-03T03:34:58;4.25;;;1.50;;
68284;SDS011;55114;52.052;5.238;2023-02-03T03:40:00;4.85;;;1.10;;
68284;SDS011;55114;52.052;5.238;2023-02-03T03:42:39;8.60;;;1.40;;
68284;SDS011;55114;52.052;5.238;2023-02-03T03:48:11;5.82;;;1.13;;
68284;SDS011;55114;52.052;5.238;2023-02-03T03:50:41;7.18;;;1.30;;
68284;SDS011;55114;52.052;5.238;2023-02-03T03:53:10;5.25;;;1.17;;
68284;SDS011;55114;52.052;5.238;2023-02-03T03:55:38;6.35;;;1.23;;
68284;SDS011;55114;52.052;5.238;2023-02-03T03:58:07;6.07;;;1.10;;
68284;SDS011;55114;52.052;5.238;2023-02-03T04:00:36;6.15;;;1.20;;
68284;SDS011;55114;52.052;5.238;2023-02-03T04:03:06;6.60;;;1.13;;
68284;SDS011;55114;52.052;5.238;2023-02-03T04:05:37;5.88;;;1.08;;
68284;SDS011;55114;52.052;5.238;2023-02-03T04:08:05;5.60;;;0.90;;
68284;SDS011;55114;52.052;5.238;2023-02-03T04:10:33;5.63;;;1.03;;
68284;SDS011;55114;52.052;5.238;2023-02-03T04:13:01;7.60;;;1.42;;
68284;SDS011;55114;52.052;5.238;2023-02-03T04:15:29;4.82;;;1.30;;
68284;SDS011;55114;52.052;5.238;2023-02-03T04:17:56;6.55;;;0.90;;
68284;SDS011;55114;52.052;5.238;2023-02-03T04:20:30;8.75;;;1.40;;
68284;SDS011;55114;52.052;5.238;2023-02-03T04:22:57;6.93;;;0.90;;
68284;SDS011;55114;52.052;5.238;2023-02-03T04:25:25;6.45;;;1.23;;
68284;SDS011;55114;52.052;5.238;2023-02-03T04:27:52;4.43;;;0.90;;
68284;SDS011;55114;52.052;5.238;2023-02-03T04:30:20;6.82;;;0.90;;
68284;SDS011;55114;52.052;5.238;2023-02-03T04:32:47;5.07;;;1.08;;
68284;SDS011;55114;52.052;5.238;2023-02-03T04:35:14;7.33;;;1.20;;
68284;SDS011;55114;52.052;5.238;2023-02-03T04:37:41;5.38;;;1.10;;
68284;SDS011;55114;52.052;5.238;2023-02-03T04:40:09;8.57;;;1.05;;
68284;SDS011;55114;52.052;5.238;2023-02-03T04:42:37;6.03;;;1.35;;
68284;SDS011;55114;52.052;5.238;2023-02-03T04:45:05;5.90;;;1.25;;
68284;SDS011;55114;52.052;5.238;2023-02-03T04:47:32;6.60;;;1.07;;
68284;SDS011;55114;52.052;5.238;2023-02-03T04:49:59;7.80;;;1.50;;
68284;SDS011;55114;52.052;5.238;2023-02-03T04:52:27;4.85;;;0.82;;
68284;SDS011;55114;52.052;5.238;2023-02-03T04:54:54;7.32;;;1.08;;
68284;SDS011;55114;52.052;5.238;2023-02-03T04:57:21;5.88;;;1.10;;
68284;SDS011;55114;52.052;5.238;2023-02-03T04:59:48;6.87;;;1.20;;
68284;SDS011;55114;52.052;5.238;2023-02-03T05:02:15;8.65;;;1.15;;
68284;SDS011;55114;52.052;5.238;2023-02-03T05:04:42;6.30;;;1.10;;
68284;SDS011;55114;52.052;5.238;2023-02-03T05:07:10;5.28;;;0.85;;
68284;SDS011;55114;52.052;5.238;2023-02-03T05:09:37;9.50;;;1.20;;
68284;SDS011;55114;52.052;5.238;2023-02-03T05:12:04;5.53;;;1.10;;
68284;SDS011;55114;52.052;5.238;2023-02-03T05:14:31;3.70;;;0.80;;
68284;SDS011;55114;52.052;5.238;2023-02-03T05:16:58;4.97;;;1.00;;
68284;SDS011;55114;52.052;5.238;2023-02-03T05:19:25;6.57;;;1.10;;
68284;SDS011;55114;52.052;5.238;2023-02-03T05:21:53;5.22;;;1.10;;
68284;SDS011;55114;52.052;5.238;2023-02-03T05:24:20;7.57;;;1.00;;
68284;SDS011;55114;52.052;5.238;2023-02-03T05:26:47;10.00;;;1.23;;
68284;SDS011;55114;52.052;5.238;2023-02-03T05:29:14;5.68;;;0.90;;
68284;SDS011;55114;52.052;5.238;2023-02-03T05:31:41;9.05;;;1.65;;
68284;SDS011;55114;52.052;5.238;2023-02-03T05:34:08;7.70;;;1.00;;
68284;SDS011;55114;52.052;5.238;2023-02-03T05:36:36;6.63;;;1.17;;
68284;SDS011;55114;52.052;5.238;2023-02-03T05:39:03;4.90;;;1.02;;
68284;SDS011;55114;52.052;5.238;2023-02-03T05:41:30;4.10;;;0.82;;
68284;SDS011;55114;52.052;5.238;2023-02-03T05:44:17;4.90;;;1.10;;
68284;SDS011;55114;52.052;5.238;2023-02-03T05:46:44;5.78;;;0.98;;
68284;SDS011;55114;52.052;5.238;2023-02-03T05:49:11;7.10;;;1.30;;
68284;SDS011;55114;52.052;5.238;2023-02-03T05:51:39;7.47;;;0.85;;
68284;SDS011;55114;52.052;5.238;2023-02-03T05:54:06;5.68;;;1.15;;
68284;SDS011;55114;52.052;5.238;2023-02-03T05:56:34;6.38;;;1.33;;
68284;SDS011;55114;52.052;5.238;2023-02-03T05:59:01;7.80;;;1.02;;
68284;SDS011;55114;52.052;5.238;2023-02-03T06:01:28;5.87;;;0.90;;
68284;SDS011;55114;52.052;5.238;2023-02-03T06:03:55;7.43;;;1.23;;
68284;SDS011;55114;52.052;5.238;2023-02-03T06:06:22;6.35;;;0.90;;
68284;SDS011;55114;52.052;5.238;2023-02-03T06:08:49;7.25;;;0.98;;
68284;SDS011;55114;52.052;5.238;2023-02-03T06:11:21;6.60;;;1.17;;
68284;SDS011;55114;52.052;5.238;2023-02-03T06:13:51;4.60;;;0.90;;
68284;SDS011;55114;52.052;5.238;2023-02-03T06:16:18;6.55;;;1.00;;
68284;SDS011;55114;52.052;5.238;2023-02-03T06:18:45;8.30;;;1.20;;
68284;SDS011;55114;52.052;5.238;2023-02-03T06:21:12;7.25;;;1.48;;
68284;SDS011;55114;52.052;5.238;2023-02-03T06:23:40;5.35;;;1.33;;
68284;SDS011;55114;52.052;5.238;2023-02-03T06:26:07;8.77;;;1.40;;
68284;SDS011;55114;52.052;5.238;2023-02-03T06:28:34;7.35;;;1.05;;
68284;SDS011;55114;52.052;5.238;2023-02-03T06:31:03;12.57;;;1.52;;
68284;SDS011;55114;52.052;5.238;2023-02-03T06:33:31;6.82;;;1.00;;
68284;SDS011;55114;52.052;5.238;2023-02-03T06:35:58;9.27;;;1.35;;
68284;SDS011;55114;52.052;5.238;2023-02-03T06:38:25;5.70;;;1.77;;
68284;SDS011;55114;52.052;5.238;2023-02-03T06:40:52;10.13;;;1.50;;
68284;SDS011;55114;52.052;5.238;2023-02-03T06:43:20;7.40;;;1.58;;
68284;SDS011;55114;52.052;5.238;2023-02-03T06:45:47;5.57;;;1.05;;
68284;SDS011;55114;52.052;5.238;2023-02-03T06:48:14;7.18;;;0.90;;
68284;SDS011;55114;52.052;5.238;2023-02-03T06:50:42;7.67;;;1.07;;
68284;SDS011;55114;52.052;5.238;2023-02-03T06:53:09;7.15;;;1.10;;
68284;SDS011;55114;52.052;5.238;2023-02-03T06:55:36;7.00;;;1.20;;
68284;SDS011;55114;52.052;5.238;2023-02-03T06:58:03;8.65;;;1.67;;
68284;SDS011;55114;52.052;5.238;2023-02-03T07:00:30;4.78;;;1.10;;
68284;SDS011;55114;52.052;5.238;2023-02-03T07:02:57;6.10;;;1.00;;
68284;SDS011;55114;52.052;5.238;2023-02-03T07:05:25;5.15;;;0.82;;
68284;SDS011;55114;52.052;5.238;2023-02-03T07:07:53;8.32;;;1.00;;
68284;SDS011;55114;52.052;5.238;2023-02-03T07:10:20;9.82;;;1.40;;
68284;SDS011;55114;52.052;5.238;2023-02-03T07:12:47;7.40;;;1.15;;
68284;SDS011;55114;52.052;5.238;2023-02-03T07:15:16;10.77;;;1.52;;
68284;SDS011;55114;52.052;5.238;2023-02-03T07:17:43;8.38;;;1.13;;
68284;SDS011;55114;52.052;5.238;2023-02-03T07:20:19;9.68;;;1.38;;
68284;SDS011;55114;52.052;5.238;2023-02-03T07:22:51;9.98;;;1.92;;
68284;SDS011;55114;52.052;5.238;2023-02-03T07:25:18;4.28;;;1.30;;
68284;SDS011;55114;52.052;5.238;2023-02-03T07:27:45;7.25;;;1.10;;
68284;SDS011;55114;52.052;5.238;2023-02-03T07:30:12;7.55;;;1.08;;
68284;SDS011;55114;52.052;5.238;2023-02-03T07:32:40;4.93;;;1.20;;
68284;SDS011;55114;52.052;5.238;2023-02-03T07:35:07;4.57;;;1.13;;
68284;SDS011;55114;52.052;5.238;2023-02-03T07:37:34;9.68;;;1.48;;
68284;SDS011;55114;52.052;5.238;2023-02-03T07:40:01;4.28;;;1.20;;
68284;SDS011;55114;52.052;5.238;2023-02-03T07:42:28;9.25;;;1.13;;
68284;SDS011;55114;52.052;5.238;2023-02-03T07:44:56;8.02;;;1.30;;
68284;SDS011;55114;52.052;5.238;2023-02-03T07:47:23;5.97;;;1.45;;
68284;SDS011;55114;52.052;5.238;2023-02-03T07:49:50;10.55;;;1.60;;
68284;SDS011;55114;52.052;5.238;2023-02-03T07:52:17;5.55;;;1.13;;
68284;SDS011;55114;52.052;5.238;2023-02-03T07:54:47;5.72;;;0.95;;
68284;SDS011;55114;52.052;5.238;2023-02-03T07:57:14;7.40;;;1.52;;
68284;SDS011;55114;52.052;5.238;2023-02-03T07:59:41;9.88;;;1.48;;
68284;SDS011;55114;52.052;5.238;2023-02-03T08:02:08;7.22;;;1.55;;
68284;SDS011;55114;52.052;5.238;2023-02-03T08:04:36;6.35;;;1.30;;
68284;SDS011;55114;52.052;5.238;2023-02-03T08:07:04;11.23;;;1.73;;
68284;SDS011;55114;52.052;5.238;2023-02-03T08:09:31;7.57;;;1.30;;
68284;SDS011;55114;52.052;5.238;2023-02-03T08:11:58;7.93;;;1.27;;
68284;SDS011;55114;52.052;5.238;2023-02-03T08:14:25;5.32;;;1.13;;
68284;SDS011;55114;52.052;5.238;2023-02-03T08:16:52;7.43;;;1.20;;
68284;SDS011;55114;52.052;5.238;2023-02-03T08:19:20;8.07;;;1.10;;
68284;SDS011;55114;52.052;5.238;2023-02-03T08:21:47;6.82;;;1.23;;
68284;SDS011;55114;52.052;5.238;2023-02-03T08:24:14;8.32;;;1.52;;
68284;SDS011;55114;52.052;5.238;2023-02-03T08:26:41;9.35;;;2.40;;
68284;SDS011;55114;52.052;5.238;2023-02-03T08:29:08;11.98;;;1.83;;
68284;SDS011;55114;52.052;5.238;2023-02-03T08:31:36;9.20;;;1.38;;
68284;SDS011;55114;52.052;5.238;2023-02-03T08:34:04;11.90;;;1.63;;
68284;SDS011;55114;52.052;5.238;2023-02-03T08:36:31;12.88;;;2.20;;
68284;SDS011;55114;52.052;5.238;2023-02-03T08:38:58;7.60;;;1.30;;
68284;SDS011;55114;52.052;5.238;2023-02-03T08:41:25;9.23;;;1.55;;
68284;SDS011;55114;52.052;5.238;2023-02-03T08:43:52;7.88;;;1.20;;
68284;SDS011;55114;52.052;5.238;2023-02-03T08:46:20;7.07;;;1.20;;
68284;SDS011;55114;52.052;5.238;2023-02-03T08:48:47;6.30;;;0.98;;
68284;SDS011;55114;52.052;5.238;2023-02-03T08:51:15;10.77;;;1.55;;
68284;SDS011;55114;52.052;5.238;2023-02-03T08:53:42;8.35;;;1.42;;
68284;SDS011;55114;52.052;5.238;2023-02-03T08:56:10;8.52;;;1.58;;
68284;SDS011;55114;52.052;5.238;2023-02-03T08:58:37;14.38;;;1.40;;
68284;SDS011;55114;52.052;5.238;2023-02-03T09:01:05;8.32;;;1.60;;
68284;SDS011;55114;52.052;5.238;2023-02-03T09:03:33;7.03;;;1.25;;
68284;SDS011;55114;52.052;5.238;2023-02-03T09:06:01;8.05;;;1.38;;
68284;SDS011;55114;52.052;5.238;2023-02-03T09:08:28;7.87;;;1.23;;
68284;SDS011;55114;52.052;5.238;2023-02-03T09:10:56;12.35;;;1.73;;
68284;SDS011;55114;52.052;5.238;2023-02-03T09:13:23;7.13;;;1.30;;
68284;SDS011;55114;52.052;5.238;2023-02-03T09:15:50;7.28;;;1.30;;
68284;SDS011;55114;52.052;5.238;2023-02-03T09:18:18;8.20;;;1.35;;
68284;SDS011;55114;52.052;5.238;2023-02-03T09:20:45;5.73;;;1.30;;
68284;SDS011;55114;52.052;5.238;2023-02-03T09:23:12;3.95;;;1.30;;
68284;SDS011;55114;52.052;5.238;2023-02-03T09:25:40;8.77;;;1.52;;
68284;SDS011;55114;52.052;5.238;2023-02-03T09:28:11;7.20;;;1.17;;
68284;SDS011;55114;52.052;5.238;2023-02-03T09:30:38;5.68;;;1.35;;
68284;SDS011;55114;52.052;5.238;2023-02-03T09:33:05;7.10;;;1.33;;
68284;SDS011;55114;52.052;5.238;2023-02-03T09:35:33;7.40;;;1.50;;
68284;SDS011;55114;52.052;5.238;2023-02-03T09:38:00;7.18;;;1.77;;
68284;SDS011;55114;52.052;5.238;2023-02-03T09:40:29;7.43;;;1.15;;
68284;SDS011;55114;52.052;5.238;2023-02-03T09:45:32;10.50;;;1.97;;
68284;SDS011;55114;52.052;5.238;2023-02-03T09:48:02;6.38;;;1.30;;
68284;SDS011;55114;52.052;5.238;2023-02-03T09:50:32;7.78;;;1.30;;
68284;SDS011;55114;52.052;5.238;2023-02-03T09:53:02;6.47;;;1.17;;
68284;SDS011;55114;52.052;5.238;2023-02-03T09:55:34;6.80;;;1.48;;
68284;SDS011;55114;52.052;5.238;2023-02-03T09:58:15;6.10;;;1.10;;
68284;SDS011;55114;52.052;5.238;2023-02-03T10:00:49;6.45;;;1.38;;
68284;SDS011;55114;52.052;5.238;2023-02-03T10:05:52;8.48;;;1.10;;
68284;SDS011;55114;52.052;5.238;2023-02-03T10:10:52;9.23;;;1.70;;
68284;SDS011;55114;52.052;5.238;2023-02-03T10:18:46;8.45;;;1.65;;
68284;SDS011;55114;52.052;5.238;2023-02-03T10:21:18;4.95;;;1.27;;
68284;SDS011;55114;52.052;5.238;2023-02-03T10:23:46;7.13;;;1.23;;
68284;SDS011;55114;52.052;5.238;2023-02-03T10:26:19;5.60;;;1.27;;
68284;SDS011;55114;52.052;5.238;2023-02-03T10:28:50;7.20;;;1.42;;
68284;SDS011;55114;52.052;5.238;2023-02-03T10:31:25;9.65;;;1.40;;
68284;SDS011;55114;52.052;5.238;2023-02-03T10:33:59;10.63;;;1.42;;
68284;SDS011;55114;52.052;5.238;2023-02-03T10:36:32;7.47;;;1.30;;
68284;SDS011;55114;52.052;5.238;2023-02-03T10:39:18;5.18;;;1.20;;
68284;SDS011;55114;52.052;5.238;2023-02-03T10:41:47;5.50;;;1.75;;
68284;SDS011;55114;52.052;5.238;2023-02-03T10:44:14;6.53;;;1.30;;
68284;SDS011;55114;52.052;5.238;2023-02-03T10:46:41;7.38;;;1.40;;
68284;SDS011;55114;52.052;5.238;2023-02-03T10:49:10;7.33;;;1.30;;
68284;SDS011;55114;52.052;5.238;2023-02-03T10:56:56;4.40;;;1.40;;
68284;SDS011;55114;52.052;5.238;2023-02-03T10:59:28;7.28;;;1.30;;
68284;SDS011;55114;52.052;5.238;2023-02-03T11:01:56;4.63;;;1.20;;
68284;SDS011;55114;52.052;5.238;2023-02-03T11:06:58;8.07;;;1.20;;
68284;SDS011;55114;52.052;5.238;2023-02-03T11:09:34;3.85;;;1.15;;
68284;SDS011;55114;52.052;5.238;2023-02-03T11:12:07;5.25;;;1.55;;
68284;SDS011;55114;52.052;5.238;2023-02-03T11:14:37;6.47;;;1.20;;
68284;SDS011;55114;52.052;5.238;2023-02-03T11:17:11;6.10;;;1.42;;
68284;SDS011;55114;52.052;5.238;2023-02-03T11:19:41;4.75;;;1.20;;
68284;SDS011;55114;52.052;5.238;2023-02-03T11:22:09;4.80;;;1.30;;
68284;SDS011;55114;52.052;5.238;2023-02-03T11:24:37;6.40;;;1.30;;
68284;SDS011;55114;52.052;5.238;2023-02-03T11:27:05;5.77;;;1.30;;
68284;SDS011;55114;52.052;5.238;2023-02-03T11:29:35;5.25;;;1.33;;
68284;SDS011;55114;52.052;5.238;2023-02-03T11:32:05;5.47;;;1.63;;
68284;SDS011;55114;52.052;5.238;2023-02-03T11:34:34;6.07;;;1.40;;
68284;SDS011;55114;52.052;5.238;2023-02-03T11:37:25;7.22;;;2.08;;
68284;SDS011;55114;52.052;5.238;2023-02-03T11:45:35;6.00;;;1.38;;
68284;SDS011;55114;52.052;5.238;2023-02-03T11:53:24;5.90;;;1.50;;
68284;SDS011;55114;52.052;5.238;2023-02-03T11:55:55;10.13;;;1.80;;
68284;SDS011;55114;52.052;5.238;2023-02-03T12:19:45;6.50;;;1.47;;
68284;SDS011;55114;52.052;5.238;2023-02-03T12:22:32;5.78;;;1.50;;
68284;SDS011;55114;52.052;5.238;2023-02-03T12:25:06;6.15;;;1.45;;
68284;SDS011;55114;52.052;5.238;2023-02-03T12:27:47;4.75;;;1.25;;
68284;SDS011;55114;52.052;5.238;2023-02-03T12:30:17;5.28;;;1.40;;
68284;SDS011;55114;52.052;5.238;2023-02-03T12:33:07;5.00;;;1.40;;
68284;SDS011;55114;52.052;5.238;2023-02-03T12:35:37;6.38;;;1.40;;
68284;SDS011;55114;52.052;5.238;2023-02-03T12:38:06;7.57;;;1.77;;
68284;SDS011;55114;52.052;5.238;2023-02-03T12:43:15;5.13;;;1.40;;
68284;SDS011;55114;52.052;5.238;2023-02-03T12:45:44;5.33;;;1.70;;
68284;SDS011;55114;52.052;5.238;2023-02-03T12:48:16;6.82;;;1.63;;
68284;SDS011;55114;52.052;5.238;2023-02-03T12:50:49;6.38;;;1.70;;
68284;SDS011;55114;52.052;5.238;2023-02-03T12:53:28;8.43;;;1.40;;
68284;SDS011;55114;52.052;5.238;2023-02-03T13:01:04;8.80;;;1.73;;
68284;SDS011;55114;52.052;5.238;2023-02-03T13:03:48;6.07;;;1.70;;
68284;SDS011;55114;52.052;5.238;2023-02-03T13:14:09;10.30;;;1.55;;
68284;SDS011;55114;52.052;5.238;2023-02-03T13:16:38;6.78;;;1.42;;
68284;SDS011;55114;52.052;5.238;2023-02-03T13:19:16;5.70;;;1.38;;
68284;SDS011;55114;52.052;5.238;2023-02-03T13:21:46;8.35;;;1.50;;
68284;SDS011;55114;52.052;5.238;2023-02-03T13:24:13;9.25;;;2.28;;
68284;SDS011;55114;52.052;5.238;2023-02-03T13:32:09;9.15;;;2.00;;
68284;SDS011;55114;52.052;5.238;2023-02-03T13:37:56;9.53;;;2.17;;
68284;SDS011;55114;52.052;5.238;2023-02-03T13:43:00;11.13;;;1.92;;
68284;SDS011;55114;52.052;5.238;2023-02-03T13:45:32;9.70;;;2.03;;
68284;SDS011;55114;52.052;5.238;2023-02-03T13:48:12;14.15;;;2.45;;
68284;SDS011;55114;52.052;5.238;2023-02-03T13:50:40;7.50;;;1.80;;
68284;SDS011;55114;52.052;5.238;2023-02-03T13:53:18;12.50;;;2.17;;
68284;SDS011;55114;52.052;5.238;2023-02-03T13:55:59;11.73;;;2.72;;
68284;SDS011;55114;52.052;5.238;2023-02-03T13:58:31;9.35;;;2.00;;
68284;SDS011;55114;52.052;5.238;2023-02-03T14:01:25;9.77;;;1.73;;
68284;SDS011;55114;52.052;5.238;2023-02-03T14:03:52;8.65;;;1.90;;
68284;SDS011;55114;52.052;5.238;2023-02-03T14:09:54;7.68;;;1.90;;
68284;SDS011;55114;52.052;5.238;2023-02-03T14:11:51;8.82;;;1.95;;
68284;SDS011;55114;52.052;5.238;2023-02-03T14:17:06;8.30;;;2.23;;
68284;SDS011;55114;52.052;5.238;2023-02-03T14:22:16;10.25;;;2.45;;
68284;SDS011;55114;52.052;5.238;2023-02-03T14:24:44;13.15;;;2.20;;
68284;SDS011;55114;52.052;5.238;2023-02-03T14:27:20;14.00;;;2.20;;
68284;SDS011;55114;52.052;5.238;2023-02-03T14:32:50;15.95;;;2.35;;
68284;SDS011;55114;52.052;5.238;2023-02-03T14:35:37;8.63;;;1.80;;
68284;SDS011;55114;52.052;5.238;2023-02-03T14:38:06;13.82;;;2.45;;
68284;SDS011;55114;52.052;5.238;2023-02-03T14:43:20;14.70;;;2.23;;
68284;SDS011;55114;52.052;5.238;2023-02-03T14:56:37;15.00;;;2.10;;
68284;SDS011;55114;52.052;5.238;2023-02-03T14:59:27;12.88;;;2.30;;
68284;SDS011;55114;52.052;5.238;2023-02-03T15:04:23;17.70;;;3.20;;
68284;SDS011;55114;52.052;5.238;2023-02-03T15:06:51;13.35;;;1.80;;
68284;SDS011;55114;52.052;5.238;2023-02-03T15:09:38;25.37;;;2.70;;
68284;SDS011;55114;52.052;5.238;2023-02-03T15:12:18;13.40;;;2.40;;
68284;SDS011;55114;52.052;5.238;2023-02-03T15:14:45;14.48;;;2.38;;
68284;SDS011;55114;52.052;5.238;2023-02-03T15:17:21;13.15;;;2.55;;
68284;SDS011;55114;52.052;5.238;2023-02-03T15:19:49;16.65;;;3.20;;
68284;SDS011;55114;52.052;5.238;2023-02-03T15:22:26;20.63;;;6.03;;
68284;SDS011;55114;52.052;5.238;2023-02-03T15:24:55;13.98;;;2.55;;
68284;SDS011;55114;52.052;5.238;2023-02-03T15:27:23;15.15;;;2.42;;
68284;SDS011;55114;52.052;5.238;2023-02-03T15:29:51;16.98;;;2.85;;
68284;SDS011;55114;52.052;5.238;2023-02-03T15:34:54;9.23;;;2.17;;
68284;SDS011;55114;52.052;5.238;2023-02-03T15:37:30;11.95;;;2.38;;
68284;SDS011;55114;52.052;5.238;2023-02-03T15:42:33;19.67;;;2.75;;
68284;SDS011;55114;52.052;5.238;2023-02-03T15:45:06;18.92;;;3.58;;
68284;SDS011;55114;52.052;5.238;2023-02-03T15:47:37;13.33;;;2.40;;
68284;SDS011;55114;52.052;5.238;2023-02-03T15:50:07;11.80;;;2.25;;
68284;SDS011;55114;52.052;5.238;2023-02-03T15:52:40;9.13;;;2.30;;
68284;SDS011;55114;52.052;5.238;2023-02-03T15:55:14;13.68;;;2.97;;
68284;SDS011;55114;52.052;5.238;2023-02-03T15:57:43;20.05;;;3.85;;
68284;SDS011;55114;52.052;5.238;2023-02-03T16:00:32;15.63;;;2.53;;
68284;SDS011;55114;52.052;5.238;2023-02-03T16:03:00;16.88;;;2.38;;
68284;SDS011;55114;52.052;5.238;2023-02-03T16:05:30;12.57;;;2.58;;
68284;SDS011;55114;52.052;5.238;2023-02-03T16:10:44;11.52;;;2.25;;
68284;SDS011;55114;52.052;5.238;2023-02-03T16:13:27;11.87;;;1.83;;
68284;SDS011;55114;52.052;5.238;2023-02-03T16:15:59;13.70;;;2.30;;
68284;SDS011;55114;52.052;5.238;2023-02-03T16:18:26;16.30;;;2.10;;
68284;SDS011;55114;52.052;5.238;2023-02-03T16:20:53;18.00;;;2.72;;
68284;SDS011;55114;52.052;5.238;2023-02-03T16:23:21;11.15;;;2.13;;
68284;SDS011;55114;52.052;5.238;2023-02-03T16:28:35;14.32;;;2.97;;
68284;SDS011;55114;52.052;5.238;2023-02-03T16:31:21;12.75;;;2.30;;
68284;SDS011;55114;52.052;5.238;2023-02-03T16:34:14;19.05;;;2.50;;
68284;SDS011;55114;52.052;5.238;2023-02-03T16:37:01;15.82;;;2.80;;
68284;SDS011;55114;52.052;5.238;2023-02-03T16:39:46;16.40;;;2.10;;
68284;SDS011;55114;52.052;5.238;2023-02-03T16:42:36;11.13;;;2.00;;
68284;SDS011;55114;52.052;5.238;2023-02-03T16:45:22;17.45;;;2.45;;
68284;SDS011;55114;52.052;5.238;2023-02-03T16:48:11;13.52;;;2.55;;
68284;SDS011;55114;52.052;5.238;2023-02-03T16:51:00;11.02;;;2.08;;
68284;SDS011;55114;52.052;5.238;2023-02-03T16:53:30;10.70;;;2.70;;
68284;SDS011;55114;52.052;5.238;2023-02-03T16:55:58;20.23;;;2.85;;
68284;SDS011;55114;52.052;5.238;2023-02-03T16:58:26;14.98;;;2.92;;
68284;SDS011;55114;52.052;5.238;2023-02-03T17:00:53;13.32;;;2.70;;
68284;SDS011;55114;52.052;5.238;2023-02-03T17:03:22;10.70;;;2.10;;
68284;SDS011;55114;52.052;5.238;2023-02-03T17:05:50;15.03;;;2.60;;
68284;SDS011;55114;52.052;5.238;2023-02-03T17:08:19;17.17;;;2.60;;
68284;SDS011;55114;52.052;5.238;2023-02-03T17:10:46;12.18;;;2.75;;
68284;SDS011;55114;52.052;5.238;2023-02-03T17:13:14;15.55;;;2.70;;
68284;SDS011;55114;52.052;5.238;2023-02-03T17:15:43;14.43;;;1.98;;